Caineville, Utah
Current Conditions -  °F | °C
As of 1:53 PM on Sunday 23 Nov 2014 (Local Time) from KBCE Reporting Station
Clear Clear  
Wind Chill: 17°   Ceiling: Unl
Heat Index: 30°   Visibility: 10mi
Dew Point: 14°   Wind: 22mph
Humidity: 51%   Direction: 290°WNW
Pressure: 30.14"   Gusts: 29mph
Location:  38.2517°N, 111.706°W
Report Text: KBCE 232053Z AUTO 29019G25KT 10SM CLR M01/M10 A3014 RMK AO2 SLP182 T10111100 58008
Loading
Personal Weather Stations






























Interactive Weather Map New forecast layout! Learn more

10-Day Weather Forecast

Advertisements
Track Severe Weather on mobile